Time;durP1;ratioP1;P1;durP2;ratioP2;P2;SDS_P1;SDS_P2;PMS_P1;PMS_P2;Temp;Humidity;BMP_temperature;BMP_pressure;BME280_temperature;BME280_humidity;BME280_pressure;Samples;Min_cycle;Max_cycle;Signal;HPM_P1;HPM_P2
2021/10/21 00:01:56;;;;;;;24.97;23.50;;;16.30;92.90;;;;;;5000399;28;20476;-69
2021/10/21 00:04:24;;;;;;;26.00;24.33;;;16.40;92.70;;;;;;5002464;28;20463;-69
2021/10/21 00:06:51;;;;;;;26.33;24.53;;;16.30;93.40;;;;;;5000067;28;20527;-71
2021/10/21 00:09:19;;;;;;;25.57;24.07;;;16.20;93.80;;;;;;5000951;28;20452;-71
2021/10/21 00:11:46;;;;;;;25.57;23.97;;;16.30;93.60;;;;;;5000295;28;20502;-69
2021/10/21 00:14:13;;;;;;;25.63;23.87;;;16.20;93.70;;;;;;5003397;28;20465;-70
2021/10/21 00:16:39;;;;;;;25.10;23.47;;;16.20;93.60;;;;;;5002639;28;20458;-69
2021/10/21 00:19:06;;;;;;;24.47;22.93;;;16.20;94.00;;;;;;5001221;28;21108;-70
2021/10/21 00:21:33;;;;;;;26.00;24.30;;;16.10;94.00;;;;;;5001068;28;20503;-69
2021/10/21 00:24:00;;;;;;;27.30;25.70;;;16.20;93.80;;;;;;5000620;28;20464;-69
2021/10/21 00:26:28;;;;;;;27.00;25.00;;;16.20;94.00;;;;;;4998025;28;20480;-69
2021/10/21 00:28:55;;;;;;;26.80;25.10;;;16.20;93.80;;;;;;4997283;28;20913;-69
2021/10/21 00:31:22;;;;;;;26.43;24.73;;;16.10;94.10;;;;;;4999548;28;21141;-69
2021/10/21 00:33:49;;;;;;;27.80;25.80;;;16.10;94.30;;;;;;5000268;28;21032;-70
2021/10/21 00:36:16;;;;;;;26.40;24.80;;;16.00;95.00;;;;;;5001641;28;20464;-70
2021/10/21 00:38:43;;;;;;;25.80;24.20;;;16.10;94.50;;;;;;5000936;28;20479;-69
2021/10/21 00:41:10;;;;;;;25.83;24.13;;;16.20;94.10;;;;;;5002712;28;20578;-69
2021/10/21 00:43:39;;;;;;;25.97;24.47;;;16.10;94.10;;;;;;5001353;28;20467;-69
2021/10/21 00:46:07;;;;;;;26.03;24.53;;;16.10;94.00;;;;;;5002258;28;20476;-69
2021/10/21 00:48:34;;;;;;;25.03;23.47;;;16.10;94.00;;;;;;5000031;28;20471;-70
2021/10/21 00:51:02;;;;;;;25.83;24.10;;;16.10;94.20;;;;;;5003986;28;20550;-70
2021/10/21 00:53:30;;;;;;;25.80;24.13;;;16.20;93.50;;;;;;5000936;28;20464;-69
2021/10/21 00:55:57;;;;;;;25.83;24.03;;;16.30;93.20;;;;;;5001632;28;20467;-69
2021/10/21 00:58:24;;;;;;;25.87;24.30;;;16.40;92.50;;;;;;4999905;28;21004;-69
2021/10/21 01:00:53;;;;;;;26.10;24.60;;;16.30;92.60;;;;;;5001989;28;20452;-69
2021/10/21 01:03:21;;;;;;;24.53;23.03;;;16.30;92.50;;;;;;4999940;28;20474;-69
2021/10/21 01:05:49;;;;;;;25.33;23.60;;;16.20;92.50;;;;;;5001874;28;20546;-69
2021/10/21 01:08:16;;;;;;;24.27;22.87;;;16.30;92.50;;;;;;5003016;28;20467;-69
2021/10/21 01:10:44;;;;;;;25.40;23.77;;;16.30;92.30;;;;;;5003966;28;20563;-70
2021/10/21 01:13:11;;;;;;;24.87;23.27;;;16.30;92.30;;;;;;5000127;28;20745;-70
2021/10/21 01:15:38;;;;;;;24.23;22.63;;;16.30;92.20;;;;;;5000828;28;20732;-69
2021/10/21 01:18:06;;;;;;;25.07;23.37;;;16.30;92.30;;;;;;5000613;28;20467;-69
2021/10/21 01:20:35;;;;;;;25.50;23.90;;;16.30;92.40;;;;;;5000049;28;20469;-71
2021/10/21 01:23:02;;;;;;;24.90;23.33;;;16.30;92.60;;;;;;5000206;28;20466;-71
2021/10/21 01:25:29;;;;;;;25.20;23.70;;;16.20;93.00;;;;;;4998814;28;21160;-71
2021/10/21 01:27:56;;;;;;;24.40;22.90;;;16.30;92.60;;;;;;5003890;28;20479;-71
2021/10/21 01:30:25;;;;;;;24.90;23.40;;;16.30;92.50;;;;;;5004623;28;20460;-70
2021/10/21 01:32:53;;;;;;;25.20;23.43;;;16.30;92.40;;;;;;5001911;28;20489;-70
2021/10/21 01:35:20;;;;;;;25.60;24.10;;;16.20;92.90;;;;;;5010810;28;21126;-70
2021/10/21 01:37:49;;;;;;;24.17;22.77;;;16.20;93.10;;;;;;5003371;28;21015;-70
2021/10/21 01:40:17;;;;;;;24.63;23.03;;;16.20;93.10;;;;;;5005201;28;20455;-71
2021/10/21 01:42:44;;;;;;;25.33;23.73;;;16.20;93.00;;;;;;5001389;28;21088;-71
2021/10/21 01:45:19;;;;;;;25.10;23.50;;;16.20;92.90;;;;;;5002277;28;20475;-70
2021/10/21 01:47:46;;;;;;;23.97;22.50;;;16.10;93.00;;;;;;4996942;28;20480;-70
2021/10/21 01:50:14;;;;;;;24.40;22.80;;;16.10;92.60;;;;;;5001205;28;20567;-71
2021/10/21 01:52:41;;;;;;;24.17;22.67;;;16.20;92.60;;;;;;5002530;28;20873;-71
2021/10/21 01:55:11;;;;;;;23.37;21.97;;;16.10;92.40;;;;;;5005249;28;20470;-72
2021/10/21 01:57:38;;;;;;;23.50;22.20;;;16.20;92.50;;;;;;5003022;28;21169;-70
2021/10/21 02:00:07;;;;;;;23.40;22.00;;;16.10;92.60;;;;;;5005127;28;20464;-70
2021/10/21 02:02:34;;;;;;;24.30;22.60;;;16.10;92.30;;;;;;5003513;28;20480;-71
2021/10/21 02:05:01;;;;;;;24.13;22.73;;;16.10;92.60;;;;;;5005673;28;20602;-69
2021/10/21 02:07:28;;;;;;;23.70;22.17;;;16.20;92.60;;;;;;5003522;28;20725;-69
2021/10/21 02:09:55;;;;;;;23.43;22.00;;;16.10;92.90;;;;;;5003533;28;20974;-69
2021/10/21 02:12:23;;;;;;;24.00;22.50;;;16.20;92.80;;;;;;5002228;28;21653;-69
2021/10/21 02:14:50;;;;;;;22.20;20.90;;;16.20;92.50;;;;;;5007187;28;21008;-69
2021/10/21 02:17:17;;;;;;;22.77;21.37;;;16.20;92.70;;;;;;5002719;28;20467;-69
2021/10/21 02:19:44;;;;;;;22.00;20.70;;;16.20;92.70;;;;;;5003916;28;20456;-69
2021/10/21 02:22:10;;;;;;;22.43;21.00;;;16.20;92.90;;;;;;5001601;28;20491;-69
2021/10/21 02:24:37;;;;;;;22.20;20.60;;;16.20;92.80;;;;;;5003288;28;20474;-69
2021/10/21 02:27:04;;;;;;;21.60;20.10;;;16.10;93.10;;;;;;5004746;28;20483;-69
2021/10/21 02:29:33;;;;;;;21.43;20.23;;;16.10;93.40;;;;;;5002211;28;22816;-69
2021/10/21 02:32:00;;;;;;;21.30;20.10;;;16.10;93.90;;;;;;5003203;28;21058;-69
2021/10/21 02:34:27;;;;;;;20.37;19.27;;;16.10;93.50;;;;;;5001012;28;21016;-69
2021/10/21 02:36:54;;;;;;;21.70;20.37;;;16.20;93.20;;;;;;5002813;28;21116;-69
2021/10/21 02:39:21;;;;;;;21.63;20.17;;;16.20;93.20;;;;;;4999256;28;20475;-69
2021/10/21 02:41:48;;;;;;;20.43;19.23;;;16.20;93.40;;;;;;5002175;28;20497;-69
2021/10/21 02:44:15;;;;;;;20.90;19.80;;;16.20;93.50;;;;;;5003611;28;20467;-69
2021/10/21 02:46:44;;;;;;;20.20;19.00;;;16.20;93.30;;;;;;5002268;28;20479;-69
2021/10/21 02:49:11;;;;;;;19.67;18.57;;;16.10;93.10;;;;;;5002579;28;21031;-69
2021/10/21 02:51:40;;;;;;;20.97;19.40;;;16.10;93.20;;;;;;5002456;28;20491;-69
2021/10/21 02:54:07;;;;;;;19.50;18.47;;;16.20;92.70;;;;;;5003167;28;20461;-69
2021/10/21 02:56:34;;;;;;;21.03;19.83;;;16.20;92.50;;;;;;5004600;28;20462;-69
2021/10/21 02:59:01;;;;;;;20.63;19.47;;;16.20;92.70;;;;;;5002734;28;20455;-69
2021/10/21 03:01:28;;;;;;;20.50;19.40;;;16.20;92.70;;;;;;5004824;28;20471;-69
2021/10/21 03:03:58;;;;;;;20.67;19.50;;;16.20;92.50;;;;;;5002016;28;20471;-69
2021/10/21 03:06:25;;;;;;;20.60;19.40;;;16.20;92.50;;;;;;5006189;28;20468;-69
2021/10/21 03:08:52;;;;;;;21.07;19.70;;;16.20;92.00;;;;;;5002640;28;23089;-69
2021/10/21 03:11:19;;;;;;;21.90;20.80;;;16.30;91.40;;;;;;5004471;28;20678;-69
2021/10/21 03:13:45;;;;;;;21.27;20.07;;;16.40;91.30;;;;;;5002116;28;20553;-70
2021/10/21 03:16:12;;;;;;;20.40;19.27;;;16.40;91.30;;;;;;5003520;28;20476;-69
2021/10/21 03:18:39;;;;;;;20.53;19.43;;;16.40;90.80;;;;;;5004115;28;20475;-71
2021/10/21 03:21:07;;;;;;;20.80;19.70;;;16.40;90.40;;;;;;5002347;28;20480;-71
2021/10/21 03:23:34;;;;;;;21.40;20.30;;;16.50;90.50;;;;;;5005007;28;20465;-71
2021/10/21 03:26:01;;;;;;;20.50;19.23;;;16.50;90.40;;;;;;5005313;28;20463;-71
2021/10/21 03:28:28;;;;;;;20.83;19.63;;;16.50;90.00;;;;;;5003435;28;20491;-70
2021/10/21 03:30:55;;;;;;;21.40;20.20;;;16.50;90.00;;;;;;5005185;28;20486;-70
2021/10/21 03:33:22;;;;;;;20.60;19.40;;;16.60;89.70;;;;;;5000943;28;20640;-70
2021/10/21 03:35:49;;;;;;;20.13;19.03;;;16.60;89.60;;;;;;5004158;28;20602;-70
2021/10/21 03:38:17;;;;;;;20.87;19.57;;;16.60;89.80;;;;;;5003347;28;20456;-70
2021/10/21 03:40:44;;;;;;;18.90;17.90;;;16.50;89.90;;;;;;5003216;28;20460;-70
2021/10/21 03:43:11;;;;;;;20.27;19.17;;;16.40;90.00;;;;;;5000726;28;20471;-70
2021/10/21 03:45:38;;;;;;;20.70;19.70;;;16.50;89.70;;;;;;5002464;28;20460;-69
2021/10/21 03:48:05;;;;;;;19.50;18.50;;;16.50;89.50;;;;;;5001741;28;20494;-69
2021/10/21 03:50:32;;;;;;;19.90;18.90;;;16.40;88.90;;;;;;5002686;28;20946;-69
2021/10/21 03:52:59;;;;;;;18.70;17.80;;;16.40;88.80;;;;;;5002808;28;20456;-69
2021/10/21 03:55:27;;;;;;;19.27;18.27;;;16.40;89.00;;;;;;5004866;28;20464;-69
2021/10/21 03:57:54;;;;;;;20.30;19.30;;;16.40;89.30;;;;;;5000237;28;20470;-69
2021/10/21 04:00:21;;;;;;;19.23;18.33;;;16.40;88.80;;;;;;5004504;28;23377;-69
2021/10/21 04:02:48;;;;;;;19.50;18.50;;;16.30;88.50;;;;;;5000359;28;20538;-69
2021/10/21 04:05:15;;;;;;;18.90;18.00;;;16.40;88.20;;;;;;5004003;28;20465;-69
2021/10/21 04:07:42;;;;;;;20.00;18.80;;;16.40;88.20;;;;;;5004564;28;20999;-69
2021/10/21 04:10:10;;;;;;;19.73;18.73;;;16.30;87.40;;;;;;5005127;28;20451;-69
2021/10/21 04:12:38;;;;;;;20.47;19.37;;;16.30;86.10;;;;;;5003788;28;20484;-69
2021/10/21 04:15:06;;;;;;;20.63;19.53;;;16.30;85.20;;;;;;5006212;28;21065;-69
2021/10/21 04:17:33;;;;;;;21.80;20.70;;;16.30;84.10;;;;;;5004034;28;20448;-69
2021/10/21 04:20:00;;;;;;;20.80;19.60;;;16.30;82.10;;;;;;5004686;28;20466;-69
2021/10/21 04:22:27;;;;;;;20.90;19.80;;;16.30;81.50;;;;;;4999767;28;20487;-69
2021/10/21 04:24:54;;;;;;;22.70;21.50;;;16.20;81.20;;;;;;5001098;28;20456;-69
2021/10/21 04:27:21;;;;;;;23.37;21.87;;;16.20;79.70;;;;;;5002013;28;21027;-69
2021/10/21 04:29:49;;;;;;;24.07;22.47;;;16.20;78.50;;;;;;5004613;28;20453;-73
2021/10/21 04:32:17;;;;;;;22.27;20.97;;;16.20;78.20;;;;;;5003359;28;20991;-69
2021/10/21 04:34:44;;;;;;;23.63;22.43;;;16.10;76.80;;;;;;5004122;28;20456;-68
2021/10/21 04:37:11;;;;;;;23.00;21.70;;;16.10;76.00;;;;;;5003351;28;20457;-69
2021/10/21 04:39:38;;;;;;;25.47;24.07;;;16.00;74.50;;;;;;5004371;28;20471;-74
2021/10/21 04:42:05;;;;;;;22.70;21.40;;;16.00;73.90;;;;;;5006845;28;21076;-69
2021/10/21 04:44:32;;;;;;;24.40;22.80;;;16.00;72.90;;;;;;5006954;28;20988;-69
2021/10/21 04:47:00;;;;;;;25.23;23.73;;;15.90;73.50;;;;;;5007347;28;20472;-69
2021/10/21 04:49:27;;;;;;;23.00;21.70;;;15.80;72.00;;;;;;5007233;28;21275;-69
2021/10/21 04:51:54;;;;;;;23.10;21.80;;;15.80;71.10;;;;;;5007311;28;20603;-69
2021/10/21 04:54:20;;;;;;;23.80;22.50;;;15.70;71.50;;;;;;5005234;28;20460;-68
2021/10/21 04:56:47;;;;;;;24.27;22.20;;;15.70;71.70;;;;;;5007784;28;20458;-70
2021/10/21 04:59:14;;;;;;;23.73;22.30;;;15.60;71.60;;;;;;5007761;28;20464;-71
2021/10/21 05:01:41;;;;;;;23.87;22.47;;;15.60;70.30;;;;;;5007926;28;20480;-70
2021/10/21 05:04:10;;;;;;;24.07;22.77;;;15.50;70.10;;;;;;5003747;28;20471;-70
2021/10/21 05:06:40;;;;;;;24.73;23.20;;;15.50;70.20;;;;;;5010253;28;20480;-70
2021/10/21 05:09:07;;;;;;;24.20;22.80;;;15.40;69.60;;;;;;5007432;28;20490;-71
2021/10/21 05:11:34;;;;;;;23.80;22.40;;;15.30;67.90;;;;;;5003236;28;20476;-70
2021/10/21 05:14:01;;;;;;;23.73;22.23;;;15.20;68.20;;;;;;5003782;28;21105;-71
2021/10/21 05:16:28;;;;;;;23.87;22.13;;;15.20;67.50;;;;;;5010511;28;20490;-69
2021/10/21 05:18:55;;;;;;;24.83;23.20;;;15.20;67.50;;;;;;5009607;28;20453;-69
2021/10/21 05:21:23;;;;;;;24.17;22.37;;;15.10;67.60;;;;;;5007940;28;20484;-69
2021/10/21 05:23:50;;;;;;;26.40;24.80;;;15.10;67.10;;;;;;5006885;28;20466;-69
2021/10/21 05:26:17;;;;;;;23.83;22.43;;;15.00;66.70;;;;;;5008716;28;20463;-69
2021/10/21 05:28:44;;;;;;;25.37;23.93;;;15.00;66.40;;;;;;5005678;28;20558;-69
2021/10/21 05:31:11;;;;;;;26.63;24.30;;;15.00;66.70;;;;;;5007436;28;20504;-69
2021/10/21 05:33:37;;;;;;;26.70;25.07;;;14.90;65.80;;;;;;5005435;28;20479;-69
2021/10/21 05:36:06;;;;;;;25.57;23.60;;;14.90;66.00;;;;;;5007401;28;20592;-69
2021/10/21 05:38:35;;;;;;;25.63;24.03;;;14.90;66.10;;;;;;5005895;28;20475;-69
2021/10/21 05:41:04;;;;;;;25.87;24.17;;;14.90;66.30;;;;;;5002909;28;20476;-69
2021/10/21 05:43:33;;;;;;;26.80;25.00;;;14.80;66.30;;;;;;4999107;28;21016;-69
2021/10/21 05:46:00;;;;;;;26.67;25.10;;;14.80;67.20;;;;;;5001140;28;20460;-68
2021/10/21 05:48:27;;;;;;;25.50;23.90;;;14.80;66.90;;;;;;5000346;28;20692;-68
2021/10/21 05:50:54;;;;;;;26.50;24.80;;;14.80;67.50;;;;;;5004028;28;20527;-69
2021/10/21 05:53:21;;;;;;;27.37;25.50;;;14.80;67.30;;;;;;5001785;28;20460;-68
2021/10/21 05:55:49;;;;;;;27.00;25.10;;;14.70;67.60;;;;;;5007760;28;20452;-70
2021/10/21 05:58:16;;;;;;;25.77;23.70;;;14.70;67.30;;;;;;4998649;28;20456;-70
2021/10/21 06:00:43;;;;;;;27.80;26.20;;;14.70;67.30;;;;;;5002490;28;20517;-72
2021/10/21 06:03:10;;;;;;;25.30;23.73;;;14.70;67.30;;;;;;5007490;28;20454;-73
2021/10/21 06:05:38;;;;;;;25.93;24.23;;;14.60;66.90;;;;;;5021987;28;20969;-70
2021/10/21 06:08:05;;;;;;;25.80;23.90;;;14.60;67.10;;;;;;5026094;28;20998;-70
2021/10/21 06:10:32;;;;;;;25.17;23.53;;;14.60;67.30;;;;;;5029061;28;20452;-69
2021/10/21 06:13:01;;;;;;;25.77;24.17;;;14.50;66.80;;;;;;5027420;28;20519;-69
2021/10/21 06:15:28;;;;;;;26.70;24.83;;;14.60;66.90;;;;;;5026345;28;20468;-69
2021/10/21 06:17:57;;;;;;;25.60;23.70;;;14.60;66.60;;;;;;5027532;28;21004;-71
2021/10/21 06:20:24;;;;;;;32.57;25.23;;;14.60;66.30;;;;;;5026063;28;20463;-70
2021/10/21 06:22:55;;;;;;;27.37;25.57;;;14.70;66.00;;;;;;5027333;28;20486;-69
2021/10/21 06:25:22;;;;;;;26.40;24.73;;;14.70;66.20;;;;;;5027930;28;20571;-70
2021/10/21 06:27:49;;;;;;;25.30;23.67;;;14.70;65.80;;;;;;5032648;28;20486;-72
2021/10/21 06:30:17;;;;;;;26.23;24.50;;;14.60;65.70;;;;;;5035552;28;20530;-71
2021/10/21 06:32:45;;;;;;;26.70;24.23;;;14.60;66.30;;;;;;5025382;28;20484;-70
2021/10/21 06:35:15;;;;;;;25.50;24.07;;;14.70;65.50;;;;;;5027538;28;20472;-70
2021/10/21 06:37:42;;;;;;;24.63;23.13;;;14.70;65.50;;;;;;5028706;28;20463;-70
2021/10/21 06:40:11;;;;;;;25.63;24.00;;;14.60;64.80;;;;;;5024184;28;20985;-70
2021/10/21 06:42:37;;;;;;;25.73;24.13;;;14.60;64.70;;;;;;5031088;28;20479;-70
2021/10/21 06:45:05;;;;;;;25.63;24.23;;;14.60;64.80;;;;;;5028573;28;20462;-71
2021/10/21 06:47:34;;;;;;;27.63;25.83;;;14.60;64.80;;;;;;5027963;28;20466;-71
2021/10/21 06:50:01;;;;;;;27.70;25.60;;;14.60;64.50;;;;;;5028708;28;20460;-71
2021/10/21 06:52:28;;;;;;;28.27;25.83;;;14.60;64.60;;;;;;5026579;28;20977;-71
2021/10/21 06:54:55;;;;;;;26.90;25.07;;;14.60;64.30;;;;;;5027131;28;20451;-71
2021/10/21 06:57:28;;;;;;;24.80;23.30;;;14.70;63.70;;;;;;5027557;28;20504;-71
2021/10/21 06:59:55;;;;;;;26.43;24.83;;;14.70;63.60;;;;;;5025794;28;20464;-71
2021/10/21 07:02:22;;;;;;;25.50;23.80;;;14.80;64.00;;;;;;5027370;28;20490;-71
2021/10/21 07:04:50;;;;;;;26.13;24.50;;;14.80;63.30;;;;;;5031047;28;20987;-70
2021/10/21 07:07:17;;;;;;;27.37;25.27;;;14.90;63.30;;;;;;5024680;28;20460;-71
2021/10/21 07:09:44;;;;;;;26.80;25.20;;;15.00;62.70;;;;;;5027521;28;20483;-71
2021/10/21 07:12:11;;;;;;;26.20;24.70;;;15.00;62.80;;;;;;5029273;28;20480;-71
2021/10/21 07:14:38;;;;;;;25.90;24.13;;;15.10;62.50;;;;;;5026653;28;21254;-70
2021/10/21 07:17:05;;;;;;;26.90;25.23;;;15.10;62.30;;;;;;5025861;28;20468;-71
2021/10/21 07:19:31;;;;;;;25.40;24.00;;;15.10;61.70;;;;;;5027998;28;20460;-71
2021/10/21 07:22:01;;;;;;;27.67;26.13;;;15.10;62.10;;;;;;5024320;28;21076;-71
2021/10/21 07:24:28;;;;;;;25.57;23.70;;;15.20;61.60;;;;;;5024607;28;20448;-71
2021/10/21 07:26:55;;;;;;;26.80;24.73;;;15.20;62.20;;;;;;5028229;28;20462;-71
2021/10/21 07:29:22;;;;;;;25.47;23.70;;;15.30;62.10;;;;;;5027653;28;20476;-71
2021/10/21 07:31:48;;;;;;;28.10;26.10;;;15.40;61.90;;;;;;5023457;28;20488;-71
2021/10/21 07:34:15;;;;;;;25.77;24.07;;;15.50;61.40;;;;;;5020495;28;20468;-71
2021/10/21 07:36:42;;;;;;;25.93;24.30;;;15.60;61.60;;;;;;5024668;28;20458;-72
2021/10/21 07:39:12;;;;;;;25.47;24.07;;;15.70;61.60;;;;;;5028297;28;20456;-72
2021/10/21 07:41:39;;;;;;;26.00;24.50;;;15.80;61.40;;;;;;5024340;28;20503;-71
2021/10/21 07:44:06;;;;;;;25.47;23.70;;;15.80;61.30;;;;;;5027231;28;20474;-71
2021/10/21 07:46:34;;;;;;;26.93;25.37;;;15.90;60.90;;;;;;5025428;28;20456;-71
2021/10/21 07:49:01;;;;;;;26.77;25.30;;;15.90;60.50;;;;;;5031112;28;20480;-70
2021/10/21 07:51:31;;;;;;;28.73;27.10;;;15.90;60.40;;;;;;5025983;28;20494;-70
2021/10/21 07:53:58;;;;;;;24.70;23.30;;;15.90;60.40;;;;;;5033245;28;20965;-70
2021/10/21 07:56:26;;;;;;;27.00;25.30;;;15.80;60.20;;;;;;5026411;28;20837;-70
2021/10/21 07:58:53;;;;;;;25.00;23.53;;;15.90;60.10;;;;;;5037400;28;20462;-70
2021/10/21 08:01:20;;;;;;;25.70;24.20;;;16.00;59.90;;;;;;5032675;28;21014;-70
2021/10/21 08:03:47;;;;;;;26.80;25.10;;;16.00;60.00;;;;;;5027658;28;20462;-70
2021/10/21 08:06:14;;;;;;;26.27;24.13;;;16.00;59.60;;;;;;5033768;28;20451;-71
2021/10/21 08:08:41;;;;;;;25.00;23.70;;;15.90;59.20;;;;;;5033955;28;20471;-71
2021/10/21 08:11:08;;;;;;;25.50;23.80;;;15.90;59.30;;;;;;5034204;28;20494;-71
2021/10/21 08:13:36;;;;;;;24.23;22.93;;;15.80;59.30;;;;;;5028656;28;20452;-71
2021/10/21 08:16:03;;;;;;;25.70;24.30;;;15.80;59.60;;;;;;5026831;28;20478;-71
2021/10/21 08:18:30;;;;;;;24.73;23.43;;;15.80;59.40;;;;;;5032134;28;20444;-71
2021/10/21 08:20:57;;;;;;;25.43;24.10;;;15.90;58.90;;;;;;5031969;28;20475;-71
2021/10/21 08:23:24;;;;;;;25.17;23.73;;;15.90;58.90;;;;;;5031521;28;20549;-70
2021/10/21 08:25:51;;;;;;;25.53;23.70;;;15.80;58.50;;;;;;5029671;28;20456;-71
2021/10/21 08:28:18;;;;;;;24.30;23.00;;;15.70;59.20;;;;;;5031560;28;20518;-71
2021/10/21 08:30:47;;;;;;;25.33;23.60;;;15.70;58.90;;;;;;5025558;28;20470;-71
2021/10/21 08:33:15;;;;;;;24.00;22.70;;;15.80;59.00;;;;;;5031561;28;22056;-71
2021/10/21 08:35:42;;;;;;;25.20;23.43;;;15.80;59.30;;;;;;5027492;28;20486;-71
2021/10/21 08:38:09;;;;;;;24.90;23.40;;;15.90;59.20;;;;;;5031545;28;20451;-71
2021/10/21 08:40:37;;;;;;;23.57;22.07;;;15.90;58.80;;;;;;5025571;28;20447;-72
2021/10/21 08:43:05;;;;;;;24.63;23.13;;;15.80;59.20;;;;;;5039451;28;20540;-71
2021/10/21 08:45:32;;;;;;;23.83;22.50;;;15.70;59.60;;;;;;5025979;28;20539;-70
2021/10/21 08:48:02;;;;;;;25.40;24.10;;;15.70;59.60;;;;;;5033264;28;21106;-71
2021/10/21 08:50:32;;;;;;;23.10;21.90;;;15.60;59.90;;;;;;5029766;28;20541;-71
2021/10/21 08:52:59;;;;;;;23.30;22.10;;;15.50;60.50;;;;;;5030246;28;20543;-71
2021/10/21 08:55:27;;;;;;;24.50;23.30;;;15.50;61.10;;;;;;5025686;28;21358;-71
2021/10/21 08:57:54;;;;;;;24.40;23.10;;;15.30;63.00;;;;;;5030498;28;20884;-71
2021/10/21 09:00:21;;;;;;;25.53;24.00;;;15.10;63.00;;;;;;5026397;28;20456;-71
2021/10/21 09:02:51;;;;;;;26.20;24.87;;;14.90;63.60;;;;;;5026091;28;20507;-72
2021/10/21 09:05:29;;;;;;;24.50;23.30;;;14.70;64.90;;;;;;5032593;28;20462;-70
2021/10/21 09:08:08;;;;;;;24.77;23.47;;;14.60;65.40;;;;;;5030925;28;20510;-71
2021/10/21 09:10:44;;;;;;;24.57;23.27;;;14.50;66.30;;;;;;5028335;28;20534;-72
2021/10/21 09:13:21;;;;;;;24.33;22.90;;;14.50;66.40;;;;;;5028544;28;20452;-70
2021/10/21 09:15:49;;;;;;;23.77;22.57;;;14.40;66.70;;;;;;5033884;28;20467;-70
2021/10/21 09:18:17;;;;;;;24.30;23.00;;;14.30;66.30;;;;;;5027267;28;20459;-70
2021/10/21 09:20:47;;;;;;;24.57;23.27;;;14.10;66.30;;;;;;5028743;28;20491;-71
2021/10/21 09:23:16;;;;;;;25.20;23.90;;;14.00;67.10;;;;;;5028159;28;20468;-71
2021/10/21 09:25:44;;;;;;;24.70;23.30;;;14.10;66.60;;;;;;5029322;28;20459;-71
2021/10/21 09:28:20;;;;;;;23.90;22.70;;;14.20;66.70;;;;;;5026712;28;20490;-71
2021/10/21 09:30:56;;;;;;;23.30;22.10;;;14.30;67.00;;;;;;5027047;28;20538;-71
2021/10/21 09:33:24;;;;;;;24.90;23.50;;;14.30;66.60;;;;;;5027798;28;20478;-71
2021/10/21 09:35:57;;;;;;;23.60;22.30;;;14.30;67.30;;;;;;5034443;28;20455;-71
2021/10/21 09:38:29;;;;;;;23.53;22.33;;;14.50;66.70;;;;;;5032923;28;20463;-71
2021/10/21 09:40:57;;;;;;;23.90;22.43;;;14.50;66.50;;;;;;5029071;28;20502;-70
2021/10/21 09:43:35;;;;;;;25.00;23.70;;;14.40;66.20;;;;;;5023396;28;20834;-71
2021/10/21 09:46:04;;;;;;;23.63;22.43;;;14.20;67.10;;;;;;5026462;28;20811;-70
2021/10/21 09:48:31;;;;;;;23.57;22.20;;;14.20;67.10;;;;;;5026817;28;20456;-71
2021/10/21 09:51:00;;;;;;;23.37;22.07;;;14.30;66.60;;;;;;5029522;28;20869;-71
2021/10/21 09:53:31;;;;;;;22.60;21.50;;;14.50;65.40;;;;;;5028347;28;22182;-71
2021/10/21 09:56:04;;;;;;;23.60;22.33;;;14.40;64.40;;;;;;5024582;28;20452;-71
2021/10/21 09:58:33;;;;;;;23.97;22.77;;;14.40;64.70;;;;;;5027942;28;20546;-71
2021/10/21 10:01:06;;;;;;;23.97;22.77;;;14.30;62.50;;;;;;5027778;28;20606;-70
2021/10/21 10:03:35;;;;;;;23.80;22.60;;;14.20;63.70;;;;;;5031827;28;20451;-72
2021/10/21 10:06:03;;;;;;;23.40;22.00;;;14.20;62.90;;;;;;5027738;28;20462;-70
2021/10/21 10:08:30;;;;;;;23.83;22.43;;;14.20;62.20;;;;;;5038130;28;20916;-70
2021/10/21 10:10:59;;;;;;;24.20;22.90;;;14.20;61.30;;;;;;5024365;28;20502;-71
2021/10/21 10:13:27;;;;;;;23.50;22.20;;;14.20;59.50;;;;;;5028358;28;20475;-71
2021/10/21 10:15:56;;;;;;;23.90;22.70;;;14.20;59.90;;;;;;5024662;28;20467;-71
2021/10/21 10:18:25;;;;;;;24.53;23.13;;;14.30;59.70;;;;;;5027259;28;20475;-72
2021/10/21 10:20:56;;;;;;;23.30;22.03;;;14.20;59.90;;;;;;5025826;28;22268;-72
2021/10/21 10:23:25;;;;;;;24.50;22.90;;;14.30;59.40;;;;;;5026074;28;20460;-71
2021/10/21 10:25:53;;;;;;;23.83;22.43;;;14.30;58.80;;;;;;5027285;28;20458;-71
2021/10/21 10:28:20;;;;;;;23.07;21.90;;;14.50;59.60;;;;;;5027056;28;20463;-70
2021/10/21 10:30:50;;;;;;;23.80;22.60;;;14.50;58.80;;;;;;5023408;28;20488;-70
2021/10/21 10:33:40;;;;;;;23.10;21.90;;;14.70;58.20;;;;;;5032553;28;20466;-70
2021/10/21 10:36:28;;;;;;;24.20;22.90;;;14.70;57.70;;;;;;5027899;28;20949;-71
2021/10/21 10:38:59;;;;;;;22.93;21.73;;;14.80;58.50;;;;;;5027939;28;20448;-72
2021/10/21 10:41:52;;;;;;;23.83;22.57;;;14.90;58.20;;;;;;5031980;28;20561;-72
2021/10/21 10:44:56;;;;;;;26.13;24.50;;;15.00;58.60;;;;;;5025436;28;20460;-72
2021/10/21 10:47:42;;;;;;;25.83;24.43;;;15.10;59.20;;;;;;5026498;28;21000;-72
2021/10/21 10:50:14;;;;;;;25.80;24.40;;;15.20;59.00;;;;;;5025632;28;20519;-71
2021/10/21 10:52:53;;;;;;;24.30;23.10;;;15.00;59.20;;;;;;5028516;28;20475;-72
2021/10/21 10:55:23;;;;;;;23.93;22.47;;;14.90;59.40;;;;;;5020348;28;20470;-72
2021/10/21 10:57:55;;;;;;;23.40;22.20;;;14.80;60.20;;;;;;5030073;28;20550;-72
2021/10/21 11:00:51;;;;;;;23.30;21.90;;;15.00;60.00;;;;;;5029953;28;20459;-72
2021/10/21 11:03:35;;;;;;;24.07;22.77;;;15.10;59.50;;;;;;4990295;28;20474;-72
2021/10/21 11:06:04;;;;;;;23.20;21.90;;;15.10;59.30;;;;;;5017147;28;20457;-71
2021/10/21 11:08:58;;;;;;;23.60;22.20;;;15.10;59.30;;;;;;5021873;28;20962;-74
2021/10/21 11:11:41;;;;;;;23.10;21.90;;;15.00;58.40;;;;;;5006588;28;20487;-72
2021/10/21 11:14:09;;;;;;;25.27;23.27;;;14.90;58.80;;;;;;5029714;28;20480;-72
2021/10/21 11:16:43;;;;;;;24.27;22.90;;;14.80;58.50;;;;;;5027557;28;20468;-71
2021/10/21 11:19:11;;;;;;;24.30;22.97;;;14.60;59.40;;;;;;5033563;28;20502;-72
2021/10/21 11:21:55;;;;;;;24.63;23.23;;;14.80;59.60;;;;;;5032985;28;20480;-71
2021/10/21 11:24:57;;;;;;;25.03;23.33;;;15.00;58.60;;;;;;5029823;28;20875;-71
2021/10/21 11:27:31;;;;;;;24.50;23.10;;;15.10;57.70;;;;;;5023198;28;20953;-71
2021/10/21 11:30:09;;;;;;;24.93;23.40;;;15.00;58.00;;;;;;5026056;28;20834;-71
2021/10/21 11:32:37;;;;;;;23.47;22.27;;;15.10;57.30;;;;;;5028628;28;20480;-71
2021/10/21 11:35:07;;;;;;;24.47;23.17;;;15.00;57.10;;;;;;5023993;28;20548;-71
2021/10/21 11:37:36;;;;;;;23.97;22.50;;;15.10;57.70;;;;;;5027540;28;20459;-70
2021/10/21 11:40:04;;;;;;;24.07;22.60;;;15.30;56.10;;;;;;5021795;28;20458;-71
2021/10/21 11:42:32;;;;;;;23.93;22.53;;;15.10;56.20;;;;;;5028651;28;20475;-71
2021/10/21 11:45:06;;;;;;;23.33;22.03;;;15.20;56.00;;;;;;5021213;28;20491;-71
2021/10/21 11:47:34;;;;;;;24.70;23.30;;;15.30;56.00;;;;;;5024095;28;20452;-71
2021/10/21 11:50:02;;;;;;;23.87;22.43;;;15.40;55.70;;;;;;5033996;28;20534;-71
2021/10/21 11:52:44;;;;;;;23.43;22.10;;;15.40;55.30;;;;;;5042388;28;20536;-71
2021/10/21 11:55:26;;;;;;;23.83;22.33;;;15.30;55.60;;;;;;5026272;28;20630;-71
2021/10/21 11:57:54;;;;;;;24.83;23.30;;;15.30;56.00;;;;;;5033840;28;21025;-71
2021/10/21 12:00:23;;;;;;;24.93;23.50;;;15.20;56.40;;;;;;5025849;28;20448;-71
2021/10/21 12:02:59;;;;;;;23.70;22.30;;;15.20;57.10;;;;;;5027705;28;20476;-71
2021/10/21 12:05:30;;;;;;;26.23;24.73;;;15.20;56.50;;;;;;5021717;28;20539;-71
2021/10/21 12:08:00;;;;;;;25.40;24.10;;;15.20;56.90;;;;;;5022630;28;20826;-71
2021/10/21 12:10:29;;;;;;;22.93;21.77;;;15.10;57.20;;;;;;5022918;28;21121;-71
2021/10/21 12:12:57;;;;;;;23.10;21.90;;;15.20;57.10;;;;;;5026358;28;20559;-71
2021/10/21 12:15:25;;;;;;;25.00;23.40;;;15.30;57.30;;;;;;5024634;28;20463;-72
2021/10/21 12:17:53;;;;;;;25.17;23.67;;;15.20;57.10;;;;;;5021465;28;20522;-73
2021/10/21 12:20:38;;;;;;;23.47;22.27;;;15.30;57.00;;;;;;5024702;28;20466;-71
2021/10/21 12:23:17;;;;;;;24.40;23.00;;;15.20;57.10;;;;;;5024960;28;20460;-71
2021/10/21 12:25:47;;;;;;;24.73;23.23;;;15.40;57.00;;;;;;5023864;28;21209;-71
2021/10/21 12:28:15;;;;;;;24.57;23.07;;;15.60;56.70;;;;;;5027390;28;20452;-73
2021/10/21 12:30:42;;;;;;;24.60;23.30;;;15.70;55.70;;;;;;5019417;28;20483;-73
2021/10/21 12:33:14;;;;;;;25.60;23.73;;;15.80;55.60;;;;;;5026986;28;20576;-73
2021/10/21 12:36:00;;;;;;;24.90;23.40;;;15.90;54.90;;;;;;5019812;28;20455;-73
2021/10/21 12:38:28;;;;;;;24.83;23.33;;;15.90;54.30;;;;;;5027041;28;20546;-75